Time;durP1;ratioP1;P1;durP2;ratioP2;P2;SDS_P1;SDS_P2;PMS_P1;PMS_P2;Temp;Humidity;BMP_temperature;BMP_pressure;BME280_temperature;BME280_humidity;BME280_pressure;Samples;Min_cycle;Max_cycle;Signal;HPM_P1;HPM_P2
2022/08/10 00:02:58;;;;;;;3.38;1.90;;;;;;;20.75;41.37;99750.53;5177194;28;20100;-70
2022/08/10 00:05:49;;;;;;;3.85;1.90;;;;;;;20.54;41.95;99748.66;5178427;28;20053;-69
2022/08/10 00:08:42;;;;;;;5.07;2.20;;;;;;;20.38;42.79;99749.69;5176833;28;20102;-68
2022/08/10 00:11:33;;;;;;;2.10;1.52;;;;;;;20.25;42.85;99744.13;5185458;28;20081;-70
2022/08/10 00:14:23;;;;;;;4.55;1.83;;;;;;;20.28;42.76;99752.69;5181309;28;20175;-70
2022/08/10 00:17:13;;;;;;;3.60;1.98;;;;;;;20.19;43.10;99751.94;5184275;28;20065;-67
2022/08/10 00:20:04;;;;;;;3.78;2.13;;;;;;;20.23;42.75;99757.81;5181258;28;20057;-70
2022/08/10 00:22:58;;;;;;;2.00;1.80;;;;;;;20.16;43.11;99756.84;5177626;28;20079;-68
2022/08/10 00:25:48;;;;;;;3.70;1.90;;;;;;;20.29;42.81;99748.13;5175361;28;20068;-70
2022/08/10 00:28:38;;;;;;;4.20;2.00;;;;;;;20.33;42.67;99746.72;5180792;28;20112;-69
2022/08/10 00:31:28;;;;;;;4.72;1.90;;;;;;;20.21;43.21;99750.94;5177922;28;20061;-70
2022/08/10 00:34:18;;;;;;;2.72;2.05;;;;;;;20.17;43.31;99748.63;5180208;28;20120;-68
2022/08/10 00:37:08;;;;;;;2.28;1.90;;;;;;;20.10;43.80;99742.31;5184906;28;20041;-68
2022/08/10 00:39:59;;;;;;;2.97;1.90;;;;;;;20.09;43.44;99747.88;5177396;28;20100;-68
2022/08/10 00:42:49;;;;;;;3.55;1.77;;;;;;;20.05;44.20;99727.72;5180311;28;20583;-68
2022/08/10 00:45:40;;;;;;;4.05;1.85;;;;;;;19.96;44.12;99740.44;5175812;28;20045;-69
2022/08/10 00:48:32;;;;;;;6.63;2.17;;;;;;;19.90;44.10;99736.66;5181091;28;20046;-69
2022/08/10 00:51:22;;;;;;;5.05;1.80;;;;;;;19.87;44.59;99738.88;5183222;28;20090;-69
2022/08/10 00:54:36;;;;;;;3.65;2.20;;;;;;;19.94;44.08;99747.88;5182055;28;20041;-69
2022/08/10 00:57:26;;;;;;;3.40;2.15;;;;;;;19.98;44.06;99742.97;5181841;28;20057;-68
2022/08/10 01:00:17;;;;;;;3.72;1.95;;;;;;;19.82;44.45;99743.97;5182225;28;20093;-68
2022/08/10 01:03:07;;;;;;;1.92;1.80;;;;;;;19.70;44.49;99747.13;5180517;28;20049;-68
2022/08/10 01:06:04;;;;;;;3.08;2.00;;;;;;;19.71;45.21;99742.59;5182791;28;20053;-67
2022/08/10 01:09:10;;;;;;;3.17;1.92;;;;;;;19.66;44.98;99744.97;5186227;28;20057;-69
2022/08/10 01:12:13;;;;;;;2.85;2.08;;;;;;;19.55;44.14;99753.47;5186556;28;20579;-68
2022/08/10 01:15:39;;;;;;;3.97;2.00;;;;;;;19.43;45.43;99751.22;5185447;28;20050;-68
2022/08/10 01:18:33;;;;;;;3.53;2.20;;;;;;;19.41;45.89;99752.44;5183431;28;20422;-70
2022/08/10 01:22:04;;;;;;;4.43;2.60;;;;;;;19.38;45.61;99742.06;5181691;28;20103;-69
2022/08/10 01:25:13;;;;;;;2.88;2.10;;;;;;;19.23;46.20;99750.91;5181635;28;20191;-68
2022/08/10 01:28:18;;;;;;;2.97;2.08;;;;;;;19.13;45.97;99758.38;5183030;28;20060;-69
2022/08/10 01:31:12;;;;;;;3.22;2.08;;;;;;;19.18;47.01;99755.16;5181350;28;20068;-67
2022/08/10 01:34:08;;;;;;;7.40;1.92;;;;;;;19.16;46.38;99755.31;5180615;28;20061;-68
2022/08/10 01:37:05;;;;;;;2.45;2.13;;;;;;;19.18;46.90;99750.63;5183965;28;20046;-68
2022/08/10 01:39:59;;;;;;;3.78;1.80;;;;;;;19.18;46.54;99753.31;5179127;28;20049;-68
2022/08/10 01:42:51;;;;;;;3.80;2.08;;;;;;;19.13;46.86;99747.63;5183891;28;20072;-69
2022/08/10 01:45:47;;;;;;;2.45;2.03;;;;;;;19.09;46.95;99757.06;5184466;28;20450;-69
2022/08/10 01:48:41;;;;;;;2.50;2.00;;;;;;;18.98;46.92;99758.34;5183793;28;20049;-68
2022/08/10 01:51:41;;;;;;;4.07;1.98;;;;;;;19.00;46.96;99753.59;5187115;28;20053;-69
2022/08/10 01:54:31;;;;;;;4.85;2.20;;;;;;;19.05;46.98;99747.69;5181750;28;20050;-68
2022/08/10 01:57:24;;;;;;;5.30;2.08;;;;;;;18.87;47.35;99755.22;5183877;28;20049;-68
2022/08/10 02:00:15;;;;;;;5.03;2.10;;;;;;;18.95;46.63;99752.50;5182656;28;20060;-67
2022/08/10 02:03:08;;;;;;;5.65;2.00;;;;;;;18.70;47.87;99739.19;5179171;28;20053;-68
2022/08/10 02:06:00;;;;;;;3.17;1.98;;;;;;;18.86;47.53;99753.56;5178542;28;20050;-68
2022/08/10 02:08:52;;;;;;;3.92;2.15;;;;;;;18.84;47.81;99750.19;5184026;28;20041;-67
2022/08/10 02:12:04;;;;;;;3.10;2.03;;;;;;;18.91;47.91;99756.56;5183814;28;20136;-70
2022/08/10 02:15:01;;;;;;;5.30;2.10;;;;;;;18.83;47.61;99752.06;5180919;28;20081;-69
2022/08/10 02:17:55;;;;;;;3.38;2.10;;;;;;;18.75;47.47;99754.81;5185530;28;20136;-69
2022/08/10 02:20:52;;;;;;;5.15;1.95;;;;;;;18.73;48.00;99754.13;5177734;28;20049;-68
2022/08/10 02:23:44;;;;;;;4.45;2.13;;;;;;;18.68;48.17;99749.28;5182892;28;20509;-69
2022/08/10 02:26:49;;;;;;;2.45;2.25;;;;;;;18.66;48.02;99748.63;5182477;28;20065;-69
2022/08/10 02:29:47;;;;;;;2.25;2.00;;;;;;;18.62;48.27;99758.03;5177450;28;20049;-69
2022/08/10 02:32:39;;;;;;;6.35;2.25;;;;;;;18.62;47.97;99762.59;5183471;28;20450;-69
2022/08/10 02:35:40;;;;;;;4.88;1.92;;;;;;;18.54;48.14;99756.25;5185001;28;20046;-67
2022/08/10 02:38:54;;;;;;;3.97;2.30;;;;;;;18.45;48.51;99761.84;5183072;28;20424;-69
2022/08/10 02:42:04;;;;;;;7.27;3.03;;;;;;;18.47;48.19;99760.63;5181159;28;20081;-69
2022/08/10 02:45:32;;;;;;;2.55;2.20;;;;;;;18.43;48.22;99761.16;5184303;28;20281;-67
2022/08/10 02:48:32;;;;;;;2.67;2.15;;;;;;;18.37;47.96;99761.88;5180649;28;20105;-68
2022/08/10 02:51:30;;;;;;;2.67;2.30;;;;;;;18.34;49.39;99751.47;5182682;28;20053;-67
2022/08/10 02:54:49;;;;;;;2.88;2.28;;;;;;;18.25;49.47;99759.59;5184047;28;20175;-67
2022/08/10 02:57:43;;;;;;;3.95;1.90;;;;;;;18.15;50.65;99761.63;5181594;28;20081;-68
2022/08/10 03:00:55;;;;;;;4.78;2.45;;;;;;;18.07;50.34;99758.97;5180404;28;20492;-69
2022/08/10 03:03:56;;;;;;;4.85;2.38;;;;;;;17.92;49.58;99732.03;5173299;28;20107;-68
2022/08/10 03:07:00;;;;;;;2.60;2.03;;;;;;;18.12;50.27;99759.31;5181251;28;20146;-68
2022/08/10 03:09:52;;;;;;;3.10;2.22;;;;;;;18.10;49.51;99749.75;5183150;28;20131;-67
2022/08/10 03:12:46;;;;;;;6.20;2.50;;;;;;;18.20;50.00;99763.78;5180524;28;20053;-67
2022/08/10 03:15:39;;;;;;;6.47;2.67;;;;;;;18.03;50.00;99763.84;5178976;28;20550;-67
2022/08/10 03:18:32;;;;;;;4.57;2.28;;;;;;;18.05;50.38;99767.22;5185575;28;20752;-68
2022/08/10 03:21:25;;;;;;;2.55;2.08;;;;;;;17.98;49.87;99760.00;5180467;28;20045;-68
2022/08/10 03:24:21;;;;;;;3.85;2.30;;;;;;;18.10;49.92;99761.31;5177055;28;20721;-68
2022/08/10 03:27:22;;;;;;;5.80;2.60;;;;;;;17.91;49.77;99765.22;5180390;28;20054;-68
2022/08/10 03:30:13;;;;;;;4.15;2.17;;;;;;;17.99;49.46;99761.69;5183037;28;20060;-66
2022/08/10 03:33:26;;;;;;;3.50;2.40;;;;;;;18.16;49.31;99762.47;5180395;28;20238;-67
2022/08/10 03:36:16;;;;;;;4.15;2.42;;;;;;;17.75;50.69;99762.59;5184482;28;20184;-68
2022/08/10 03:39:27;;;;;;;7.63;2.45;;;;;;;17.92;50.07;99771.44;5180756;28;20533;-68
2022/08/10 03:42:20;;;;;;;5.40;2.55;;;;;;;17.73;50.42;99769.94;5184723;28;20060;-68
2022/08/10 03:45:10;;;;;;;3.63;2.28;;;;;;;17.60;50.91;99760.56;5181827;28;20056;-68
2022/08/10 03:48:04;;;;;;;4.40;2.50;;;;;;;17.81;50.76;99776.19;5180313;28;20492;-68
2022/08/10 03:50:55;;;;;;;3.30;2.50;;;;;;;17.64;51.65;99769.13;5181181;28;20152;-67
2022/08/10 03:53:48;;;;;;;3.45;2.60;;;;;;;17.79;50.48;99770.13;5178766;28;20057;-67
2022/08/10 03:56:55;;;;;;;2.60;2.40;;;;;;;17.76;51.13;99778.53;5177901;28;20056;-68
2022/08/10 03:59:46;;;;;;;5.10;3.60;;;;;;;17.79;50.63;99775.50;5180022;28;20059;-67
2022/08/10 04:02:36;;;;;;;7.40;2.90;;;;;;;17.40;52.11;99783.41;5179638;28;20053;-66
2022/08/10 04:05:37;;;;;;;3.80;2.78;;;;;;;17.59;51.64;99777.69;5179011;28;20053;-67
2022/08/10 04:08:28;;;;;;;5.00;2.90;;;;;;;17.74;51.71;99795.75;5186280;28;20104;-68
2022/08/10 04:11:17;;;;;;;2.58;2.33;;;;;;;17.48;51.20;99791.44;5180520;28;20124;-68
2022/08/10 04:14:08;;;;;;;5.60;2.83;;;;;;;17.52;51.91;99789.25;5179059;28;20054;-68
2022/08/10 04:17:24;;;;;;;3.58;2.60;;;;;;;17.50;51.76;99791.25;5178950;28;20116;-66
2022/08/10 04:20:43;;;;;;;3.90;2.80;;;;;;;17.59;51.80;99792.94;5178502;28;20062;-68
2022/08/10 04:23:36;;;;;;;6.15;3.00;;;;;;;17.37;51.13;99781.88;5179146;28;20142;-68
2022/08/10 04:26:27;;;;;;;4.70;2.88;;;;;;;17.55;51.58;99795.13;5178864;28;20180;-67
2022/08/10 04:29:17;;;;;;;5.28;3.20;;;;;;;17.27;52.34;99791.09;5186027;28;20069;-68
2022/08/10 04:32:09;;;;;;;3.35;2.70;;;;;;;17.45;51.41;99801.66;5184351;28;20096;-68
2022/08/10 04:35:03;;;;;;;3.10;2.67;;;;;;;17.39;52.31;99800.50;5173734;28;20105;-68
2022/08/10 04:37:55;;;;;;;;;;;;;;;17.48;52.01;99802.19;5176188;28;20073;-68
2022/08/10 04:40:46;;;;;;;3.78;2.90;;;;;;;17.33;52.93;99806.53;5182369;28;19948;-68
2022/08/10 04:43:37;;;;;;;3.13;2.83;;;;;;;17.15;53.81;99790.59;5183933;28;20056;-68
2022/08/10 04:46:27;;;;;;;6.88;3.20;;;;;;;17.55;53.01;99803.16;5184229;28;20428;-67
2022/08/10 04:49:38;;;;;;;3.95;3.00;;;;;;;17.34;53.39;99803.66;5182935;28;20053;-67
2022/08/10 04:52:46;;;;;;;4.15;2.50;;;;;;;17.46;53.84;99798.81;5180801;28;20099;-66
2022/08/10 04:55:36;;;;;;;3.55;2.80;;;;;;;17.34;52.70;99795.63;5185079;28;20064;-67
2022/08/10 04:58:26;;;;;;;5.55;2.60;;;;;;;17.44;53.45;99805.34;5181541;28;20108;-68
2022/08/10 05:01:16;;;;;;;5.32;3.15;;;;;;;17.54;52.73;99796.09;5181191;28;20057;-68
2022/08/10 05:04:12;;;;;;;4.68;3.72;;;;;;;17.52;53.41;99802.66;5185083;28;20064;-66
2022/08/10 05:07:22;;;;;;;5.32;2.90;;;;;;;17.72;53.22;99795.94;5186436;28;20066;-66
2022/08/10 05:10:12;;;;;;;5.65;3.08;;;;;;;17.79;53.72;99799.63;5179945;28;20187;-66
2022/08/10 05:13:03;;;;;;;4.72;3.10;;;;;;;17.87;53.73;99806.00;5184785;28;20057;-65
2022/08/10 05:15:53;;;;;;;7.70;3.30;;;;;;;17.94;53.59;99802.44;5184231;28;20575;-65
2022/08/10 05:18:43;;;;;;;7.45;2.72;;;;;;;17.93;53.27;99803.47;5184077;28;20071;-67
2022/08/10 05:21:33;;;;;;;8.30;2.80;;;;;;;18.12;53.08;99810.28;5183276;28;20061;-66
2022/08/10 05:24:43;;;;;;;6.78;2.95;;;;;;;18.28;52.34;99809.41;5182842;28;20107;-67
2022/08/10 05:27:34;;;;;;;10.23;2.92;;;;;;;18.35;52.18;99806.88;5183420;28;20606;-65
2022/08/10 05:30:24;;;;;;;8.80;2.90;;;;;;;18.34;51.75;99816.75;5185997;28;20057;-65
2022/08/10 05:33:14;;;;;;;4.45;2.70;;;;;;;18.39;51.56;99810.88;5180384;28;20143;-66
2022/08/10 05:36:05;;;;;;;5.15;2.80;;;;;;;18.42;51.62;99814.03;5187768;28;20053;-66
2022/08/10 05:38:56;;;;;;;6.78;3.30;;;;;;;18.45;53.05;99819.06;5177352;28;20054;-67
2022/08/10 05:41:50;;;;;;;11.55;3.75;;;;;;;18.52;53.66;99813.84;5180108;28;20069;-65
2022/08/10 05:44:43;;;;;;;6.32;3.50;;;;;;;18.51;52.83;99812.16;5181736;28;20530;-64
2022/08/10 05:47:33;;;;;;;4.32;3.15;;;;;;;18.73;52.52;99813.25;5182225;28;20061;-65
2022/08/10 05:50:43;;;;;;;5.45;2.60;;;;;;;18.72;51.96;99806.22;5180362;28;20058;-66
2022/08/10 05:53:35;;;;;;;8.48;3.45;;;;;;;18.88;52.55;99822.22;5181663;28;20037;-64
2022/08/10 05:56:47;;;;;;;4.05;3.00;;;;;;;19.00;52.43;99825.34;5171455;28;20057;-67
2022/08/10 05:59:53;;;;;;;8.05;3.05;;;;;;;19.15;51.63;99818.19;5183397;28;20108;-66
2022/08/10 06:03:06;;;;;;;7.18;2.92;;;;;;;19.19;51.77;99813.28;5183677;28;20124;-66
2022/08/10 06:05:59;;;;;;;6.10;2.77;;;;;;;19.39;50.56;99813.63;5179304;28;20052;-64
2022/08/10 06:08:50;;;;;;;8.05;2.90;;;;;;;19.49;51.28;99816.91;5179057;28;20504;-65
2022/08/10 06:11:42;;;;;;;9.65;3.13;;;;;;;19.58;50.67;99815.81;5180162;28;20128;-66
2022/08/10 06:14:59;;;;;;;6.80;2.58;;;;;;;19.92;49.91;99809.13;5179988;28;20073;-66
2022/08/10 06:17:59;;;;;;;8.90;2.88;;;;;;;20.24;48.17;99817.88;5187505;28;20523;-67
2022/08/10 06:20:51;;;;;;;9.05;2.30;;;;;;;20.40;48.26;99804.22;5181107;28;21010;-66
2022/08/10 06:23:43;;;;;;;4.25;2.38;;;;;;;20.76;47.09;99812.34;5179669;28;20093;-66
2022/08/10 06:26:33;;;;;;;11.88;2.38;;;;;;;21.02;46.30;99808.25;5185134;28;20056;-66
2022/08/10 06:29:27;;;;;;;3.80;1.90;;;;;;;21.22;45.43;99805.75;5183411;28;20045;-66
2022/08/10 06:32:24;;;;;;;3.90;2.20;;;;;;;21.45;44.37;99800.19;5183987;28;20064;-66
2022/08/10 06:35:15;;;;;;;4.10;1.70;;;;;;;21.80;43.71;99806.50;5184511;28;20120;-66
2022/08/10 06:38:07;;;;;;;10.57;1.80;;;;;;;22.10;42.82;99808.97;5177593;28;20045;-66
2022/08/10 06:41:03;;;;;;;4.97;1.90;;;;;;;22.21;41.49;99809.25;5181381;28;20057;-67
2022/08/10 06:44:17;;;;;;;4.28;1.80;;;;;;;22.44;41.23;99810.84;5182198;28;20211;-66
2022/08/10 06:47:12;;;;;;;4.15;2.00;;;;;;;22.84;40.98;99806.41;5183457;28;20046;-68
2022/08/10 06:50:20;;;;;;;5.35;1.75;;;;;;;22.72;41.18;99803.47;5186474;28;20112;-70
2022/08/10 06:53:34;;;;;;;2.38;1.90;;;;;;;22.82;39.96;99808.50;5179720;28;20053;-68
2022/08/10 06:56:44;;;;;;;5.13;1.75;;;;;;;23.22;40.43;99800.50;5176593;28;20054;-68
2022/08/10 06:59:58;;;;;;;7.53;1.80;;;;;;;23.24;39.40;99803.81;5178448;28;20049;-68
2022/08/10 07:03:00;;;;;;;3.30;1.73;;;;;;;23.50;38.83;99803.00;5181041;28;20495;-69
2022/08/10 07:05:58;;;;;;;5.95;1.70;;;;;;;23.14;39.10;99789.88;5179530;28;20133;-68
2022/08/10 07:08:50;;;;;;;6.30;1.80;;;;;;;23.65;37.94;99813.63;5183422;28;20096;-68
2022/08/10 07:11:42;;;;;;;4.30;1.92;;;;;;;24.17;38.07;99808.38;5177710;28;20108;-68
2022/08/10 07:14:35;;;;;;;5.05;1.60;;;;;;;24.05;38.35;99808.19;5181621;28;20077;-68
2022/08/10 07:17:29;;;;;;;1.88;1.50;;;;;;;24.01;38.02;99809.69;5179046;28;20049;-68
2022/08/10 07:20:21;;;;;;;3.50;1.45;;;;;;;24.56;37.71;99805.56;5178014;28;20534;-67
2022/08/10 07:23:13;;;;;;;3.22;1.63;;;;;;;24.70;36.28;99803.63;5178846;28;20176;-67
2022/08/10 07:26:25;;;;;;;5.78;1.77;;;;;;;24.97;37.09;99795.34;5185225;28;20048;-68
2022/08/10 07:29:18;;;;;;;5.88;1.60;;;;;;;25.23;35.65;99803.34;5185906;28;20107;-68
2022/08/10 07:32:32;;;;;;;9.32;2.22;;;;;;;25.29;35.76;99791.59;5179530;28;20107;-67
2022/08/10 07:35:25;;;;;;;1.97;1.77;;;;;;;25.74;35.06;99802.28;5181254;28;20060;-68
2022/08/10 07:38:24;;;;;;;4.30;1.80;;;;;;;26.71;32.99;99810.66;5177265;28;20050;-68
2022/08/10 07:41:16;;;;;;;4.15;1.70;;;;;;;27.81;32.04;99805.91;5178321;28;20403;-68
2022/08/10 07:44:10;;;;;;;2.92;2.13;;;;;;;28.80;30.15;99798.50;5184033;28;20038;-68
2022/08/10 07:47:03;;;;;;;4.00;1.77;;;;;;;29.62;29.96;99793.72;5178412;28;20085;-69
2022/08/10 07:50:02;;;;;;;2.85;1.65;;;;;;;30.11;28.16;99796.63;5177875;28;20053;-68
2022/08/10 07:52:56;;;;;;;2.80;1.52;;;;;;;30.69;28.96;99792.44;5176648;28;20428;-68
2022/08/10 07:55:48;;;;;;;2.20;1.60;;;;;;;31.08;27.94;99784.94;5180376;28;20052;-68
2022/08/10 07:59:06;;;;;;;5.35;1.55;;;;;;;31.53;27.02;99796.59;5179942;28;20054;-67
2022/08/10 08:01:57;;;;;;;4.00;1.70;;;;;;;32.12;26.57;99788.25;5182723;28;20076;-68
2022/08/10 08:04:48;;;;;;;3.40;1.27;;;;;;;32.18;26.06;99798.13;5180131;28;20527;-68
2022/08/10 08:07:41;;;;;;;3.25;1.40;;;;;;;32.70;25.45;99788.22;5182836;28;20057;-68
2022/08/10 08:10:33;;;;;;;5.60;1.48;;;;;;;32.63;25.71;99782.97;5179497;28;20045;-68
2022/08/10 08:13:23;;;;;;;4.55;1.48;;;;;;;33.00;25.14;99776.50;5183323;28;20061;-68
2022/08/10 08:16:14;;;;;;;1.63;1.30;;;;;;;32.84;25.41;99777.53;5182033;28;20060;-68
2022/08/10 08:19:11;;;;;;;3.53;1.02;;;;;;;33.19;24.05;99776.78;5180663;28;20053;-68
2022/08/10 08:22:23;;;;;;;4.07;1.73;;;;;;;32.92;24.79;99785.25;5182223;28;20400;-68
2022/08/10 08:25:34;;;;;;;2.83;1.60;;;;;;;33.60;23.71;99782.31;5182142;28;20484;-69
2022/08/10 08:28:26;;;;;;;6.72;1.50;;;;;;;34.00;24.21;99784.13;5187288;28;20049;-68
2022/08/10 08:31:19;;;;;;;5.97;1.40;;;;;;;34.58;23.32;99795.56;5184068;28;20054;-68
2022/08/10 08:34:12;;;;;;;2.33;1.10;;;;;;;34.68;22.79;99794.69;5177915;28;20506;-69
2022/08/10 08:37:04;;;;;;;4.87;2.27;;;;;;;34.74;23.01;99793.53;5182422;28;20046;-69
2022/08/10 08:39:55;;;;;;;6.38;1.50;;;;;;;33.19;23.38;99788.59;5183443;28;20049;-68
2022/08/10 08:43:07;;;;;;;5.50;1.50;;;;;;;33.19;22.95;99791.34;5183230;28;20047;-68
2022/08/10 08:46:27;;;;;;;2.88;1.40;;;;;;;33.62;23.80;99788.34;5181612;28;20078;-67
2022/08/10 08:49:39;;;;;;;3.25;1.25;;;;;;;33.89;22.61;99782.53;5185141;28;20119;-69
2022/08/10 08:53:08;;;;;;;3.65;1.33;;;;;;;33.81;22.11;99778.44;5176530;28;20053;-69
2022/08/10 08:56:17;;;;;;;3.20;1.38;;;;;;;34.87;21.85;99785.75;5181569;28;20068;-68
2022/08/10 08:59:39;;;;;;;5.88;1.67;;;;;;;34.63;21.21;99782.84;5183495;28;20050;-68
2022/08/10 09:02:55;;;;;;;5.43;1.23;;;;;;;34.73;21.92;99780.84;5185750;28;20103;-69
2022/08/10 09:06:19;;;;;;;4.60;1.58;;;;;;;34.92;20.99;99777.44;5178370;28;20631;-68
2022/08/10 09:09:31;;;;;;;1.58;1.40;;;;;;;34.30;21.78;99777.72;5182420;28;20049;-68
2022/08/10 09:12:39;;;;;;;5.70;1.20;;;;;;;34.74;22.42;99765.19;5182138;28;20095;-69
2022/08/10 09:15:50;;;;;;;3.72;1.40;;;;;;;34.96;20.82;99765.56;5183838;28;20415;-68
2022/08/10 09:19:06;;;;;;;3.75;1.20;;;;;;;35.50;20.36;99772.88;5184418;28;20423;-66
2022/08/10 09:22:02;;;;;;;2.22;1.30;;;;;;;34.53;21.94;99770.78;5181314;28;20420;-66
2022/08/10 09:25:18;;;;;;;4.90;1.10;;;;;;;34.60;20.79;99764.97;5186439;28;20128;-66
2022/08/10 09:28:15;;;;;;;6.15;1.17;;;;;;;34.35;20.18;99763.97;5180887;28;20056;-68
2022/08/10 09:31:09;;;;;;;4.40;1.42;;;;;;;34.22;20.89;99764.56;5184401;28;20168;-68
2022/08/10 09:34:19;;;;;;;4.38;1.33;;;;;;;33.83;20.06;99767.13;5181093;28;20053;-68
2022/08/10 09:37:51;;;;;;;5.97;1.58;;;;;;;33.61;20.48;99759.19;5184180;28;20423;-68
2022/08/10 09:41:06;;;;;;;2.75;1.35;;;;;;;32.84;21.25;99761.06;5181385;28;20046;-68
2022/08/10 09:44:44;;;;;;;9.98;1.30;;;;;;;33.31;19.78;99754.53;5187759;28;20045;-68
2022/08/10 09:48:06;;;;;;;;;;;;;;;32.92;21.10;99757.78;5177344;28;20049;-67
2022/08/10 09:51:23;;;;;;;5.03;1.10;;;;;;;33.37;21.13;99748.75;5178071;28;19944;-67
2022/08/10 09:54:57;;;;;;;2.70;1.20;;;;;;;34.98;20.39;99752.31;5182119;28;20053;-67
2022/08/10 09:58:05;;;;;;;2.10;1.10;;;;;;;34.16;19.77;99748.38;5178532;28;20493;-68
2022/08/10 10:01:19;;;;;;;2.50;1.30;;;;;;;33.13;20.68;99742.97;5179007;28;20053;-68
2022/08/10 10:04:46;;;;;;;2.30;1.45;;;;;;;33.89;20.76;99749.53;5176582;28;20045;-68
2022/08/10 10:07:41;;;;;;;1.35;1.20;;;;;;;33.25;21.40;99739.97;5180955;28;20511;-68
2022/08/10 10:10:54;;;;;;;2.47;1.10;;;;;;;32.24;22.00;99750.41;5181321;28;20566;-68
2022/08/10 10:14:15;;;;;;;5.15;1.30;;;;;;;32.67;21.95;99742.06;5178738;28;20050;-68
2022/08/10 10:17:15;;;;;;;8.38;1.38;;;;;;;33.91;20.39;99744.56;5181474;28;20489;-68
2022/08/10 10:20:10;;;;;;;1.50;1.15;;;;;;;33.78;21.33;99732.22;5180877;28;20061;-68
2022/08/10 10:23:12;;;;;;;5.50;1.92;;;;;;;34.09;20.11;99737.66;5180260;28;20068;-68
2022/08/10 10:26:10;;;;;;;1.38;1.23;;;;;;;34.44;20.40;99730.31;5179151;28;20056;-68
2022/08/10 10:29:29;;;;;;;5.57;4.53;;;;;;;34.96;20.51;99738.00;5180449;28;20104;-68
2022/08/10 10:33:01;;;;;;;3.25;1.38;;;;;;;33.43;20.08;99730.31;5181740;28;20045;-68
2022/08/10 10:35:54;;;;;;;1.50;1.40;;;;;;;32.15;21.64;99727.31;5182258;28;20057;-68
2022/08/10 10:38:46;;;;;;;2.17;1.17;;;;;;;33.91;21.63;99720.63;5179314;28;20061;-68
2022/08/10 10:41:47;;;;;;;5.35;2.80;;;;;;;34.36;21.30;99701.47;5179479;28;20056;-68
2022/08/10 10:45:09;;;;;;;4.65;1.30;;;;;;;33.75;20.01;99694.28;5182652;28;20056;-68
2022/08/10 10:48:23;;;;;;;4.10;1.40;;;;;;;34.08;20.25;99705.75;5181178;28;20049;-68
2022/08/10 10:51:36;;;;;;;4.65;1.20;;;;;;;33.02;21.67;99708.38;5180554;28;20143;-68
2022/08/10 10:54:45;;;;;;;5.55;1.30;;;;;;;32.58;21.13;99700.59;5179907;28;20088;-68
2022/08/10 10:57:54;;;;;;;1.65;1.30;;;;;;;31.53;21.61;99698.75;5260845;27;20761;-69
2022/08/10 11:01:09;;;;;;;4.55;1.20;;;;;;;32.92;20.74;99689.13;5260933;28;20431;-68
2022/08/10 11:04:13;;;;;;;2.47;1.30;;;;;;;32.87;20.10;99697.34;5253967;28;20082;-69
2022/08/10 11:07:16;;;;;;;4.28;1.60;;;;;;;33.79;18.61;99684.34;5250130;28;20159;-68
2022/08/10 11:10:18;;;;;;;4.53;1.20;;;;;;;33.81;20.31;99682.16;5250157;28;20122;-68
2022/08/10 11:13:37;;;;;;;1.67;0.90;;;;;;;33.21;18.90;99682.00;5255117;28;20069;-68
2022/08/10 11:17:00;;;;;;;6.75;1.20;;;;;;;33.89;20.96;99678.81;5254046;28;20049;-66
2022/08/10 11:20:14;;;;;;;2.55;1.10;;;;;;;34.22;20.14;99682.00;5250445;28;20262;-68
2022/08/10 11:23:21;;;;;;;1.40;1.20;;;;;;;33.32;20.95;99674.56;5248673;28;20123;-67
2022/08/10 11:26:30;;;;;;;3.50;1.38;;;;;;;33.20;21.05;99663.84;5253024;28;20049;-68
2022/08/10 11:29:32;;;;;;;2.75;1.30;;;;;;;31.53;21.88;99682.31;5257563;28;20395;-67
2022/08/10 11:32:31;;;;;;;2.38;1.30;;;;;;;31.38;22.56;99668.50;5252453;28;20066;-66
2022/08/10 11:35:37;;;;;;;3.38;1.15;;;;;;;31.63;21.58;99673.31;5247930;28;20052;-66
2022/08/10 11:38:33;;;;;;;4.72;1.33;;;;;;;32.24;21.82;99684.56;5254865;28;20454;-69
2022/08/10 11:41:44;;;;;;;2.38;1.30;;;;;;;32.52;20.18;99671.50;5254541;28;20055;-69
2022/08/10 11:45:30;;;;;;;2.90;1.35;;;;;;;31.84;21.38;99666.00;5252072;28;20052;-68
2022/08/10 11:49:02;;;;;;;4.90;1.58;;;;;;;32.87;21.47;99634.16;5252592;28;20119;-67
2022/08/10 11:51:59;;;;;;;4.15;1.38;;;;;;;32.80;21.26;99661.91;5254311;28;20675;-67
2022/08/10 11:54:53;;;;;;;1.77;1.20;;;;;;;31.58;21.42;99674.09;5255670;28;20085;-67
2022/08/10 11:57:44;;;;;;;;;;;;;;;32.39;21.54;99672.00;5257249;28;20395;-67
2022/08/10 12:00:43;;;;;;;1.55;0.90;;;;;;;32.43;20.09;99654.72;5251010;28;20300;-67
2022/08/10 12:03:37;;;;;;;2.70;1.10;;;;;;;31.80;21.79;99671.19;5253973;28;20063;-67
2022/08/10 12:06:28;;;;;;;;;;;;;;;32.65;20.87;99660.00;5253336;28;20111;-68
2022/08/10 12:09:38;;;;;;;2.13;0.90;;;;;;;32.61;20.51;99658.84;5236510;28;19935;-68
2022/08/10 12:13:08;;;;;;;2.83;1.23;;;;;;;32.18;21.35;99658.19;5233427;28;20072;-69
2022/08/10 12:16:09;;;;;;;1.33;1.23;;;;;;;31.56;22.03;99662.59;5238574;28;20055;-66
2022/08/10 12:19:19;;;;;;;3.80;1.27;;;;;;;31.92;22.50;99661.94;5232668;28;20060;-67
2022/08/10 12:22:15;;;;;;;2.25;1.40;;;;;;;31.82;22.13;99652.56;5233557;28;20045;-67
2022/08/10 12:25:10;;;;;;;1.50;1.10;;;;;;;32.15;21.10;99647.75;5232697;28;20061;-68
2022/08/10 12:28:33;;;;;;;4.13;1.20;;;;;;;30.92;22.03;99648.13;5235474;28;20568;-67
2022/08/10 12:31:59;;;;;;;7.68;1.08;;;;;;;31.65;22.14;99646.44;5239413;28;20139;-68
2022/08/10 12:35:02;;;;;;;5.03;1.10;;;;;;;31.46;22.30;99643.34;5233026;28;20556;-68
2022/08/10 12:38:02;;;;;;;1.52;1.33;;;;;;;31.21;22.55;99645.88;5230027;28;20204;-67
2022/08/10 12:40:59;;;;;;;2.72;1.20;;;;;;;31.58;22.04;99634.91;5228595;28;20146;-68
2022/08/10 12:44:00;;;;;;;1.27;0.98;;;;;;;31.76;21.88;99636.38;5233927;28;20052;-68
2022/08/10 12:47:04;;;;;;;3.10;1.00;;;;;;;31.51;22.58;99631.56;5232779;28;20411;-68
2022/08/10 12:50:10;;;;;;;3.63;1.33;;;;;;;31.04;22.35;99629.63;5229564;28;20198;-68
2022/08/10 12:53:50;;;;;;;3.92;1.33;;;;;;;31.18;22.22;99635.44;5232464;28;20153;-68
2022/08/10 12:56:48;;;;;;;3.05;1.27;;;;;;;30.29;22.72;99617.69;5232648;28;20202;-68
2022/08/10 12:59:42;;;;;;;2.67;1.00;;;;;;;30.43;23.05;99592.41;5229081;28;20487;-68
2022/08/10 13:02:33;;;;;;;;;;;;;;;30.99;22.73;99618.59;5232685;28;20045;-68
2022/08/10 13:05:26;;;;;;;2.17;1.35;;;;;;;31.47;21.41;99614.03;5234162;28;20424;-69
2022/08/10 13:11:29;;;;;;;1.55;1.10;;;;;;;31.81;21.02;99608.94;5234806;28;20052;-68
2022/08/10 13:14:53;;;;;;;4.13;1.33;;;;;;;30.69;22.45;99606.28;5233366;28;20518;-68
2022/08/10 13:17:48;;;;;;;2.83;1.10;;;;;;;31.19;22.32;99607.78;5230975;28;20045;-69
2022/08/10 13:20:42;;;;;;;3.33;1.00;;;;;;;30.85;21.77;99597.16;5228630;28;20114;-68
2022/08/10 13:23:40;;;;;;;3.35;1.08;;;;;;;30.90;22.14;99599.13;5229716;28;20513;-68
2022/08/10 13:26:59;;;;;;;3.22;1.30;;;;;;;30.93;21.62;99590.38;5231550;28;20049;-68
2022/08/10 13:30:10;;;;;;;2.17;1.20;;;;;;;30.44;23.06;99587.75;5232568;28;20045;-68
2022/08/10 13:33:01;;;;;;;2.95;1.27;;;;;;;30.48;22.83;99588.88;5234034;28;20056;-68
2022/08/10 13:35:56;;;;;;;4.38;1.33;;;;;;;30.79;22.92;99592.72;5235358;28;20048;-69
2022/08/10 13:38:54;;;;;;;2.05;1.17;;;;;;;30.54;22.35;99576.09;5234425;28;20102;-67
2022/08/10 13:41:46;;;;;;;1.23;1.13;;;;;;;30.97;22.08;99572.31;5235618;28;20055;-66
2022/08/10 13:44:47;;;;;;;2.58;1.27;;;;;;;31.11;22.45;99575.41;5227617;28;20052;-69
2022/08/10 13:47:38;;;;;;;6.15;1.40;;;;;;;31.25;22.35;99562.06;5230073;28;20048;-69
2022/08/10 13:50:38;;;;;;;3.30;1.08;;;;;;;31.22;21.84;99555.22;5224939;28;20101;-70
2022/08/10 13:53:31;;;;;;;3.60;1.05;;;;;;;30.74;22.26;99556.25;5227671;28;20453;-68
2022/08/10 13:56:22;;;;;;;3.50;1.38;;;;;;;30.36;22.48;99558.13;5233738;28;20050;-66
2022/08/10 13:59:14;;;;;;;2.05;1.00;;;;;;;31.09;22.28;99563.91;5232397;28;20109;-69
2022/08/10 14:02:06;;;;;;;3.70;1.30;;;;;;;30.94;21.69;99561.06;5227312;28;20917;-68
2022/08/10 14:04:57;;;;;;;1.33;1.00;;;;;;;30.58;22.05;99561.59;5231294;28;20809;-69
2022/08/10 14:07:48;;;;;;;3.90;1.27;;;;;;;30.81;22.28;99554.97;5226661;28;20146;-68
2022/08/10 14:10:56;;;;;;;1.95;1.08;;;;;;;31.20;21.60;99551.94;5227740;28;20132;-68
2022/08/10 14:14:03;;;;;;;1.10;1.00;;;;;;;30.95;21.88;99552.59;5228292;28;20059;-68
2022/08/10 14:16:54;;;;;;;3.00;1.10;;;;;;;30.84;22.38;99532.53;5224192;28;20067;-67